Westfield, Indiana
Current Conditions -  °F | °C
As of 5:15 AM on Saturday 20 Dec 2014 (Local Time) from KTYQ Reporting Station
Haze Haze  
Wind Chill: -2°   Ceiling: 2700
Heat Index: -2°   Visibility: 3mi
Dew Point: -3°   Wind: 0mph
Humidity: 89%   Direction: NA
Pressure: 30.26"   Gusts: NA
Location:  40.04°N, 86.13°W
Report Text: KTYQ 201015Z AUTO 00000KT 3SM BR OVC027 M02/M03 A3026 RMK AO2 T10161032
Loading
Personal Weather Stations






























Interactive Weather Map New forecast layout! Learn more

10-Day Weather Forecast

Advertisements
Track Severe Weather on mobile